Time;durP1;ratioP1;P1;durP2;ratioP2;P2;SDS_P1;SDS_P2;PMS_P1;PMS_P2;Temp;Humidity;BMP_temperature;BMP_pressure;BME280_temperature;BME280_humidity;BME280_pressure;Samples;Min_cycle;Max_cycle;Signal;HPM_P1;HPM_P2
2022/01/03 00:01:41;;;;;;;69.85;42.33;;;;;;;4.58;79.79;97922.75;10410413;28;20527;-57
2022/01/03 00:06:40;;;;;;;67.47;42.47;;;;;;;4.63;80.14;97923.75;10416599;28;20452;-57
2022/01/03 00:11:40;;;;;;;62.95;39.90;;;;;;;4.56;80.37;97897.84;10414385;28;20507;-57
2022/01/03 00:16:39;;;;;;;61.58;37.95;;;;;;;4.57;80.06;97900.47;10410337;28;20074;-57
2022/01/03 00:21:45;;;;;;;58.25;37.33;;;;;;;4.52;80.47;97902.03;10414389;28;20040;-57
2022/01/03 00:26:53;;;;;;;87.38;49.85;;;;;;;4.47;80.74;97903.63;10415683;28;20056;-57
2022/01/03 00:31:55;;;;;;;76.82;44.75;;;;;;;4.44;80.76;97889.00;10377436;28;1112931;-57
2022/01/03 00:36:55;;;;;;;57.72;37.38;;;;;;;4.31;81.17;97888.66;10417961;28;20068;-57
2022/01/03 00:41:54;;;;;;;86.28;53.90;;;;;;;4.29;81.27;97879.22;10413572;28;20478;-57
2022/01/03 00:46:53;;;;;;;68.90;42.65;;;;;;;4.29;81.26;97858.66;10412027;28;20365;-57
2022/01/03 00:51:52;;;;;;;;;;;;;;;4.27;81.57;97854.31;10380834;28;20069;-57
2022/01/03 00:56:54;;;;;;;35.88;22.65;;;;;;;4.33;82.01;97851.03;10397213;28;19916;-57
2022/01/03 01:01:58;;;;;;;45.47;27.77;;;;;;;4.39;81.49;97853.75;10410862;28;20071;-57
2022/01/03 01:06:57;;;;;;;52.15;33.10;;;;;;;4.42;81.12;97856.38;10414566;28;20060;-57
2022/01/03 01:11:59;;;;;;;65.65;43.35;;;;;;;4.33;81.03;97861.31;10415478;28;20504;-57
2022/01/03 01:16:58;;;;;;;48.38;29.80;;;;;;;4.02;82.12;97863.06;10410645;28;20504;-57
2022/01/03 01:21:57;;;;;;;47.63;30.50;;;;;;;4.02;81.77;97847.66;10416345;28;20116;-57
2022/01/03 01:32:14;;;;;;;44.00;27.23;;;;;;;3.88;81.55;97855.00;10414611;28;20083;-57
2022/01/03 01:37:19;;;;;;;40.78;25.83;;;;;;;3.74;82.00;97841.78;10414865;28;20087;-57
2022/01/03 01:42:19;;;;;;;33.70;21.92;;;;;;;3.76;82.16;97845.28;10415326;28;20068;-57
2022/01/03 01:47:19;;;;;;;23.73;15.90;;;;;;;3.72;82.73;97834.88;10410872;28;20060;-57
2022/01/03 01:52:21;;;;;;;27.38;17.73;;;;;;;4.01;83.55;97833.06;10414066;28;20079;-57
2022/01/03 01:57:21;;;;;;;28.60;18.25;;;;;;;4.31;82.79;97834.69;10410666;28;20138;-57
2022/01/03 02:02:37;;;;;;;31.02;18.92;;;;;;;4.42;81.92;97840.97;10414381;28;20079;-57
2022/01/03 02:08:03;;;;;;;28.10;18.15;;;;;;;4.47;81.48;97832.53;10411451;28;20075;-57
2022/01/03 02:13:02;;;;;;;21.40;14.32;;;;;;;4.48;81.38;97813.72;10415138;28;20067;-57
2022/01/03 02:18:02;;;;;;;21.02;14.52;;;;;;;4.53;81.16;97811.28;10412613;28;20060;-57
2022/01/03 02:23:01;;;;;;;;;;;;;;;4.66;80.96;97791.84;10411333;28;20097;-57
2022/01/03 02:28:00;;;;;;;17.02;11.50;;;;;;;4.78;80.43;97775.84;10413603;28;19912;-57
2022/01/03 02:32:59;;;;;;;23.17;12.90;;;;;;;4.80;80.28;97767.31;10413865;28;20021;-57
2022/01/03 02:37:58;;;;;;;30.83;18.02;;;;;;;4.92;79.69;97753.84;10412866;28;20064;-57
2022/01/03 02:42:57;;;;;;;30.02;18.00;;;;;;;4.95;79.32;97743.69;10414066;28;20064;-57
2022/01/03 02:47:59;;;;;;;24.13;14.85;;;;;;;4.95;79.12;97729.94;10411214;28;20068;-57
2022/01/03 02:52:58;;;;;;;26.73;14.65;;;;;;;5.06;78.73;97723.31;10406087;28;20067;-57
2022/01/03 02:58:05;;;;;;;17.45;11.27;;;;;;;5.18;78.57;97722.69;10400082;28;20064;-57
2022/01/03 03:03:04;;;;;;;17.30;10.85;;;;;;;5.30;77.47;97734.13;10406914;28;20079;-57
2022/01/03 03:08:04;;;;;;;16.10;10.40;;;;;;;5.46;77.37;97727.56;10427270;28;20040;-57
2022/01/03 03:13:03;;;;;;;15.32;11.52;;;;;;;5.48;77.05;97728.44;10417119;28;20066;-57
2022/01/03 03:18:03;;;;;;;28.00;13.23;;;;;;;5.31;76.89;97698.94;10419515;28;20079;-57
2022/01/03 03:23:03;;;;;;;;;;;;;;;5.30;76.91;97704.94;10418938;28;20064;-57
2022/01/03 03:28:06;;;;;;;99.90;78.83;;;;;;;5.26;76.83;97716.00;10414151;28;19955;-57
2022/01/03 03:33:12;;;;;;;52.92;38.33;;;;;;;4.87;77.11;97683.47;10417886;28;20072;-57
2022/01/03 03:38:12;;;;;;;34.45;22.77;;;;;;;5.06;77.17;97734.50;10417703;28;20067;-57
2022/01/03 03:43:12;;;;;;;28.83;19.83;;;;;;;5.03;77.11;97742.13;10420470;28;20074;-57
2022/01/03 03:48:12;;;;;;;19.63;13.27;;;;;;;4.89;77.58;97718.66;10418532;28;20108;-57
2022/01/03 03:53:11;;;;;;;14.52;8.73;;;;;;;4.93;77.49;97714.47;10419453;28;20064;-57
2022/01/03 03:58:12;;;;;;;12.05;7.63;;;;;;;5.05;76.94;97707.03;10406905;28;20069;-57
2022/01/03 04:03:11;;;;;;;12.57;8.80;;;;;;;5.24;76.88;97721.13;10378609;28;20079;-57
2022/01/03 04:08:10;;;;;;;17.02;11.10;;;;;;;5.34;76.31;97717.00;10389790;28;20108;-57
2022/01/03 04:13:09;;;;;;;23.98;15.18;;;;;;;5.18;76.36;97730.41;10419546;28;20102;-57
2022/01/03 04:18:08;;;;;;;26.70;16.73;;;;;;;5.13;76.77;97738.94;10415472;28;20034;-57
2022/01/03 04:23:07;;;;;;;25.90;15.00;;;;;;;5.03;76.25;97731.84;10417745;28;20032;-57
2022/01/03 04:28:06;;;;;;;24.52;14.77;;;;;;;5.07;76.28;97730.22;10417402;28;20550;-57
2022/01/03 04:33:05;;;;;;;24.85;14.40;;;;;;;5.06;76.39;97716.50;10418301;28;20824;-57
2022/01/03 04:38:05;;;;;;;18.95;11.10;;;;;;;5.05;76.23;97719.03;10416164;28;20399;-57
2022/01/03 04:43:04;;;;;;;22.73;12.70;;;;;;;5.08;76.42;97722.50;10418218;28;20103;-57
2022/01/03 04:48:04;;;;;;;51.92;30.13;;;;;;;5.13;76.45;97749.22;10416163;28;20068;-57
2022/01/03 04:53:03;;;;;;;40.33;27.52;;;;;;;5.07;76.28;97741.38;10417186;28;20850;-57
2022/01/03 04:58:02;;;;;;;37.92;22.23;;;;;;;5.24;75.48;97745.97;10409673;28;20530;-57
2022/01/03 05:03:01;;;;;;;20.80;13.48;;;;;;;5.22;75.26;97765.66;10375671;28;20068;-57
2022/01/03 05:08:00;;;;;;;21.02;14.80;;;;;;;5.15;75.72;97756.94;10383756;28;20020;-57
2022/01/03 05:12:59;;;;;;;21.08;14.23;;;;;;;5.38;75.14;97730.81;10416646;28;20042;-57
2022/01/03 05:17:58;;;;;;;;;;;;;;;5.48;75.17;97736.16;10414345;28;20071;-57
2022/01/03 05:22:57;;;;;;;22.00;12.70;;;;;;;5.48;74.03;97736.16;10415635;28;19995;-57
2022/01/03 05:27:56;;;;;;;23.15;15.50;;;;;;;5.46;74.03;97735.28;10414452;28;20113;-57
2022/01/03 05:32:55;;;;;;;40.75;24.65;;;;;;;5.48;73.56;97731.00;10414885;28;20058;-57
2022/01/03 05:37:54;;;;;;;47.08;27.30;;;;;;;5.36;73.31;97730.78;10414001;28;20032;-57
2022/01/03 05:42:53;;;;;;;39.97;25.63;;;;;;;5.33;74.18;97734.16;10413711;28;20175;-57
2022/01/03 05:47:52;;;;;;;38.28;23.17;;;;;;;5.40;74.17;97739.44;10414551;28;20064;-57
2022/01/03 05:52:51;;;;;;;31.25;18.25;;;;;;;5.36;73.70;97728.19;10415328;28;20467;-57
2022/01/03 05:57:50;;;;;;;25.70;16.30;;;;;;;5.41;73.31;97739.44;10412421;28;20064;-57
2022/01/03 06:02:54;;;;;;;28.73;18.70;;;;;;;5.28;73.53;97722.91;10414247;28;20068;-57
2022/01/03 06:07:53;;;;;;;20.23;14.18;;;;;;;5.39;73.39;97735.09;10407607;28;20519;-57
2022/01/03 06:12:52;;;;;;;20.23;14.93;;;;;;;5.46;73.55;97748.16;10415155;28;20555;-57
2022/01/03 06:17:52;;;;;;;24.13;15.70;;;;;;;5.76;73.27;97746.94;10412908;28;20459;-57
2022/01/03 06:22:51;;;;;;;32.50;21.33;;;;;;;5.96;72.58;97767.91;10410317;28;20072;-57
2022/01/03 06:27:50;;;;;;;40.17;24.60;;;;;;;5.98;72.22;97773.97;10411085;28;20025;-57
2022/01/03 06:32:49;;;;;;;27.17;17.02;;;;;;;6.07;71.60;97768.09;10413206;28;20052;-57
2022/01/03 06:37:48;;;;;;;36.50;21.85;;;;;;;6.01;71.85;97765.44;10413003;28;20498;-57
2022/01/03 06:42:47;;;;;;;30.20;20.58;;;;;;;6.04;71.90;97768.03;10414422;28;20028;-57
2022/01/03 06:47:47;;;;;;;31.13;20.15;;;;;;;6.13;71.71;97758.75;10415888;28;20067;-57
2022/01/03 06:52:46;;;;;;;26.90;18.33;;;;;;;6.22;71.12;97760.63;10421628;28;20060;-57
2022/01/03 06:57:45;;;;;;;30.02;19.73;;;;;;;6.34;70.80;97747.94;10420207;28;20024;-57
2022/01/03 07:02:44;;;;;;;62.67;37.53;;;;;;;6.33;70.20;97751.34;10416015;28;20064;-57
2022/01/03 07:07:43;;;;;;;51.25;30.20;;;;;;;6.29;70.32;97739.25;10418100;28;20514;-57
2022/01/03 07:12:42;;;;;;;37.58;25.60;;;;;;;6.42;70.11;97742.88;10418779;28;20064;-57
2022/01/03 07:22:59;;;;;;;49.75;32.38;;;;;;;6.60;69.99;97739.72;10419665;28;20071;-57
2022/01/03 07:27:59;;;;;;;55.25;34.50;;;;;;;6.68;69.55;97735.56;10396329;28;20079;-57
2022/01/03 07:32:58;;;;;;;40.78;27.63;;;;;;;6.83;69.85;97722.00;10420365;28;20076;-57
2022/01/03 07:37:58;;;;;;;43.55;29.38;;;;;;;7.02;69.45;97726.53;10417268;28;20068;-57
2022/01/03 07:42:58;;;;;;;45.40;30.77;;;;;;;7.22;68.54;97726.78;10417071;28;20098;-57
2022/01/03 07:47:57;;;;;;;33.40;23.73;;;;;;;7.42;68.14;97728.75;10413344;28;20903;-57
2022/01/03 07:53:00;;;;;;;36.00;25.02;;;;;;;7.54;67.62;97712.53;10398960;28;20064;-57
2022/01/03 07:58:02;;;;;;;35.83;24.02;;;;;;;7.99;66.29;97717.28;10396262;28;20159;-57
2022/01/03 08:03:04;;;;;;;33.13;24.30;;;;;;;8.38;66.25;97707.22;10413448;28;20068;-57
2022/01/03 08:08:08;;;;;;;37.20;26.02;;;;;;;8.68;65.20;97712.59;10430996;28;20052;-57
2022/01/03 08:13:14;;;;;;;34.10;23.80;;;;;;;8.96;65.01;97704.97;10414872;28;20719;-57
2022/01/03 08:18:13;;;;;;;27.30;20.33;;;;;;;9.17;63.38;97719.72;10412102;28;20068;-57
2022/01/03 08:23:12;;;;;;;18.02;12.57;;;;;;;9.51;62.21;97709.50;10416606;28;20107;-57
2022/01/03 08:28:12;;;;;;;20.40;15.02;;;;;;;9.85;61.03;97699.22;10406013;28;20076;-57
2022/01/03 08:33:12;;;;;;;36.80;19.52;;;;;;;10.14;60.22;97702.69;10409016;28;20148;-57
2022/01/03 08:38:11;;;;;;;52.75;27.67;;;;;;;10.37;58.42;97696.59;10415775;28;20079;-57
2022/01/03 08:43:11;;;;;;;37.22;20.55;;;;;;;10.65;57.69;97704.34;10409070;28;20035;-57
2022/01/03 08:48:12;;;;;;;19.63;12.57;;;;;;;11.06;55.56;97696.47;10414776;28;20103;-57
2022/01/03 08:53:11;;;;;;;20.77;12.93;;;;;;;11.37;53.93;97686.78;10411998;28;20063;-57
2022/01/03 08:58:12;;;;;;;11.82;6.45;;;;;;;11.66;51.58;97660.63;10406577;28;20033;-57
2022/01/03 09:03:18;;;;;;;16.38;8.60;;;;;;;11.97;49.51;97641.31;10414212;28;20064;-57
2022/01/03 09:08:17;;;;;;;9.63;4.93;;;;;;;12.26;47.17;97639.34;10411083;28;20466;-58
2022/01/03 09:13:18;;;;;;;6.07;3.80;;;;;;;12.54;47.40;97633.03;10410419;28;20099;-58
2022/01/03 09:18:21;;;;;;;5.43;3.55;;;;;;;12.84;44.51;97642.25;10408498;28;20167;-58
2022/01/03 09:23:26;;;;;;;5.53;3.75;;;;;;;13.08;45.17;97621.06;10409868;28;20190;-58
2022/01/03 09:33:44;;;;;;;4.68;3.20;;;;;;;13.63;43.57;97618.59;10428627;28;20574;-57
2022/01/03 09:38:43;;;;;;;12.15;4.63;;;;;;;13.98;42.09;97592.81;10413818;28;20768;-58
2022/01/03 09:43:51;;;;;;;5.18;3.50;;;;;;;14.37;43.44;97581.69;10402117;28;20068;-58
2022/01/03 09:48:52;;;;;;;5.63;3.38;;;;;;;14.64;41.44;97575.06;10411923;28;20110;-57
2022/01/03 09:53:52;;;;;;;5.45;2.92;;;;;;;14.88;41.15;97565.03;10404726;28;20060;-57
2022/01/03 09:58:51;;;;;;;4.22;3.03;;;;;;;15.07;39.97;97562.88;10404833;28;20123;-57
2022/01/03 10:03:52;;;;;;;;;;;;;;;15.21;39.90;97551.22;10417239;28;20060;-57
2022/01/03 10:08:53;;;;;;;6.95;3.92;;;;;;;15.31;39.33;97541.41;10399724;28;19956;-57
2022/01/03 10:13:52;;;;;;;9.02;3.35;;;;;;;15.49;37.90;97534.03;10413140;28;20071;-57
2022/01/03 10:18:55;;;;;;;7.55;3.60;;;;;;;15.60;38.21;97532.88;10413333;28;20068;-57
2022/01/03 10:23:58;;;;;;;5.93;4.18;;;;;;;15.75;38.80;97531.63;10419099;28;20127;-58
2022/01/03 10:29:11;;;;;;;7.88;4.15;;;;;;;15.88;36.94;97519.13;10417189;28;20060;-57
2022/01/03 10:34:14;;;;;;;6.18;3.97;;;;;;;15.88;37.56;97517.38;10423200;28;20071;-58
2022/01/03 10:39:28;;;;;;;5.50;3.40;;;;;;;15.78;37.88;97518.44;10417911;28;20898;-58
2022/01/03 10:44:36;;;;;;;6.43;4.47;;;;;;;15.77;37.92;97506.28;10421166;28;20546;-58
2022/01/03 10:49:38;;;;;;;8.10;4.68;;;;;;;15.64;37.69;97495.25;10420401;28;20071;-58
2022/01/03 10:54:37;;;;;;;6.50;4.53;;;;;;;15.51;38.24;97501.72;10413158;28;20084;-58
2022/01/03 10:59:36;;;;;;;6.88;3.70;;;;;;;15.24;37.27;97491.00;10415497;28;20115;-58
2022/01/03 11:14:57;;;;;;;8.77;5.80;;;;;;;14.96;38.62;97467.28;10404210;28;20060;-58
2022/01/03 11:19:59;;;;;;;;;;;;;;;15.04;38.58;97467.13;10431585;28;20036;-58
2022/01/03 11:24:58;;;;;;;6.63;4.05;;;;;;;15.25;37.95;97464.00;10411412;28;20357;-58
2022/01/03 11:29:58;;;;;;;;;;;;;;;15.47;36.73;97445.16;10415694;28;20064;-58
2022/01/03 11:34:59;;;;;;;5.25;3.55;;;;;;;15.63;36.19;97448.22;10415560;28;20434;-58
2022/01/03 11:39:59;;;;;;;8.55;4.82;;;;;;;15.84;35.98;97439.84;10415398;28;20072;-58
2022/01/03 11:45:00;;;;;;;12.95;4.57;;;;;;;16.01;35.41;97439.38;10416179;28;20083;-58
2022/01/03 11:49:59;;;;;;;8.00;4.57;;;;;;;16.13;35.01;97432.06;10419260;28;20076;-58
2022/01/03 11:54:58;;;;;;;;;;;;;;;16.26;35.06;97436.06;10408899;28;20090;-58
2022/01/03 12:05:26;;;;;;;6.10;4.70;;;;;;;16.28;33.56;97421.19;10409289;28;20060;-58
2022/01/03 12:10:25;;;;;;;;;;;;;;;16.33;34.42;97437.59;10413389;28;20133;-58
2022/01/03 12:15:33;;;;;;;6.00;3.85;;;;;;;16.40;34.12;97440.91;10417704;28;19956;-58
2022/01/03 12:20:44;;;;;;;8.52;4.20;;;;;;;16.47;33.96;97437.19;10416474;28;20075;-58
2022/01/03 12:25:46;;;;;;;6.57;3.72;;;;;;;16.48;33.80;97424.03;10415508;28;20067;-58
2022/01/03 12:30:56;;;;;;;40.97;25.75;;;;;;;16.50;34.03;97439.72;10414419;28;20087;-58
2022/01/03 12:36:16;;;;;;;7.28;5.13;;;;;;;16.55;33.85;97440.44;10409914;28;20523;-59
2022/01/03 12:41:42;;;;;;;6.40;4.40;;;;;;;16.63;34.42;97424.47;10416564;28;20064;-58
2022/01/03 12:46:41;;;;;;;11.10;5.63;;;;;;;16.56;34.66;97436.94;10397781;28;20068;-58
2022/01/03 12:51:40;;;;;;;;;;;;;;;16.45;34.11;97421.53;10416571;28;20060;-58
2022/01/03 12:56:39;;;;;;;12.53;5.50;;;;;;;16.41;34.35;97427.75;10406932;28;19916;-58
2022/01/03 13:01:38;;;;;;;;;;;;;;;16.37;34.85;97433.13;10417404;28;20472;-57
2022/01/03 13:06:37;;;;;;;8.70;4.80;;;;;;;16.28;35.06;97432.50;10409604;28;20343;-57
2022/01/03 13:11:37;;;;;;;;;;;;;;;16.21;34.99;97435.34;10410604;28;20546;-57
2022/01/03 13:16:37;;;;;;;;;;;;;;;16.14;34.77;97433.78;10413105;28;19983;-57
2022/01/03 13:21:38;;;;;;;10.18;5.35;;;;;;;16.02;35.21;97432.38;10415910;28;19955;-57
2022/01/03 13:26:56;;;;;;;10.25;5.68;;;;;;;15.95;35.20;97428.22;10413909;28;20067;-57
2022/01/03 13:31:56;;;;;;;8.25;5.50;;;;;;;15.90;35.60;97438.78;10412827;28;20110;-57
2022/01/03 13:36:59;;;;;;;12.10;6.25;;;;;;;15.76;35.10;97430.44;10414307;28;20083;-57
2022/01/03 13:42:12;;;;;;;16.00;11.38;;;;;;;15.65;35.25;97442.06;10414881;28;20075;-54
2022/01/03 13:52:39;;;;;;;24.63;15.35;;;;;;;15.37;36.19;97430.59;10413030;28;20059;-58
2022/01/03 13:57:38;;;;;;;24.33;16.40;;;;;;;15.11;36.30;97424.25;10388247;28;20120;-57
2022/01/03 14:02:39;;;;;;;43.42;28.33;;;;;;;14.86;37.19;97423.13;10412483;28;20062;-57
2022/01/03 14:07:51;;;;;;;39.17;23.83;;;;;;;14.83;38.08;97443.19;10412816;28;20075;-58
2022/01/03 14:12:54;;;;;;;43.20;25.38;;;;;;;14.66;38.93;97453.13;10396897;28;20075;-57
2022/01/03 14:17:54;;;;;;;44.42;27.88;;;;;;;14.50;39.96;97451.75;10411654;28;20060;-57
2022/01/03 14:22:53;;;;;;;36.30;21.58;;;;;;;14.28;41.74;97449.59;10414567;28;20460;-57
2022/01/03 14:28:02;;;;;;;37.50;22.58;;;;;;;14.01;41.61;97455.34;10410767;28;20075;-58
2022/01/03 14:33:04;;;;;;;39.50;25.70;;;;;;;13.74;42.55;97462.81;10413310;28;20048;-57
2022/01/03 14:38:07;;;;;;;47.58;30.05;;;;;;;13.49;43.98;97467.56;10409004;28;20075;-57
2022/01/03 14:43:06;;;;;;;53.60;34.53;;;;;;;13.25;44.33;97481.88;10414047;28;20072;-57
2022/01/03 14:48:05;;;;;;;57.63;38.92;;;;;;;13.02;44.99;97484.84;10403546;28;20060;-58
2022/01/03 14:53:07;;;;;;;116.82;72.85;;;;;;;12.65;46.68;97474.94;10409620;28;20053;-58
2022/01/03 14:58:07;;;;;;;77.97;53.97;;;;;;;12.31;47.87;97475.41;10405406;28;20075;-58
2022/01/03 15:03:06;;;;;;;71.18;47.20;;;;;;;12.07;48.56;97492.13;10413172;28;20073;-58
2022/01/03 15:08:05;;;;;;;79.53;56.28;;;;;;;11.73;49.36;97492.47;10411266;28;20840;-58
2022/01/03 15:13:05;;;;;;;68.75;46.38;;;;;;;11.52;49.19;97503.94;10420794;28;20028;-58
2022/01/03 15:18:03;;;;;;;55.50;39.88;;;;;;;11.35;49.41;97506.69;10413676;28;20696;-57
2022/01/03 15:23:03;;;;;;;58.53;42.78;;;;;;;11.15;50.00;97500.75;10420231;28;20540;-58
2022/01/03 15:28:03;;;;;;;53.22;37.25;;;;;;;11.13;50.00;97528.50;10419595;28;20060;-58
2022/01/03 15:33:02;;;;;;;59.85;41.58;;;;;;;10.89;50.79;97532.97;10416517;28;20082;-58
2022/01/03 15:38:01;;;;;;;50.47;36.72;;;;;;;10.75;51.74;97530.44;10408538;28;20036;-58
2022/01/03 15:43:00;;;;;;;66.03;43.78;;;;;;;10.66;51.68;97508.84;10419221;28;20013;-58
2022/01/03 15:47:59;;;;;;;85.10;47.85;;;;;;;10.44;51.67;97488.19;10410579;28;20079;-58
2022/01/03 15:52:58;;;;;;;241.10;113.60;;;;;;;10.28;52.23;97483.94;10416499;28;20020;-58
2022/01/03 15:57:57;;;;;;;281.55;126.43;;;;;;;10.15;52.77;97506.47;10413771;28;20086;-58
2022/01/03 16:02:56;;;;;;;269.73;120.80;;;;;;;9.99;53.93;97536.75;10418074;28;20071;-58
2022/01/03 16:07:55;;;;;;;265.60;121.63;;;;;;;9.84;53.52;97544.56;10411661;28;20063;-58
2022/01/03 16:12:55;;;;;;;284.20;127.93;;;;;;;9.73;53.42;97545.44;10417098;28;20029;-58
2022/01/03 16:17:54;;;;;;;220.95;106.53;;;;;;;9.67;54.35;97560.13;10410874;28;20072;-57
2022/01/03 16:22:53;;;;;;;190.43;100.82;;;;;;;9.55;54.54;97563.59;10415255;28;20056;-58
2022/01/03 16:27:52;;;;;;;230.40;114.88;;;;;;;9.43;55.49;97587.75;10413149;28;20027;-59
2022/01/03 16:32:51;;;;;;;206.68;102.38;;;;;;;9.31;55.84;97588.59;10409729;28;20081;-58
2022/01/03 16:37:50;;;;;;;223.45;108.10;;;;;;;9.22;56.38;97587.69;10407798;28;20104;-58
2022/01/03 16:42:49;;;;;;;238.50;119.93;;;;;;;9.12;56.89;97597.19;10413838;28;20024;-58
2022/01/03 16:47:48;;;;;;;192.10;104.85;;;;;;;8.97;57.59;97586.78;10414786;28;20476;-59
2022/01/03 16:52:47;;;;;;;178.65;99.25;;;;;;;8.83;57.54;97553.97;10410856;28;20056;-58
2022/01/03 16:57:46;;;;;;;144.63;83.28;;;;;;;8.84;58.06;97567.78;10400839;28;20063;-58
2022/01/03 17:02:45;;;;;;;126.72;68.68;;;;;;;8.68;58.03;97574.63;10410617;28;20467;-58
2022/01/03 17:07:44;;;;;;;106.18;60.83;;;;;;;8.62;58.29;97577.16;10410060;28;20804;-58
2022/01/03 17:12:43;;;;;;;84.30;43.65;;;;;;;8.49;58.18;97595.22;10409689;28;20048;-58
2022/01/03 17:17:42;;;;;;;104.88;60.97;;;;;;;8.37;58.34;97608.09;10411528;28;20483;-58
2022/01/03 17:22:41;;;;;;;125.18;76.95;;;;;;;8.22;60.33;97618.34;10407369;28;20725;-58
2022/01/03 17:27:40;;;;;;;130.90;85.15;;;;;;;8.16;60.08;97636.41;10406788;28;20135;-58
2022/01/03 17:32:39;;;;;;;172.40;109.10;;;;;;;8.03;60.59;97625.97;10411278;28;20136;-58
2022/01/03 17:37:38;;;;;;;129.35;80.70;;;;;;;8.02;60.58;97639.75;10404626;28;20484;-58
2022/01/03 17:42:37;;;;;;;141.25;87.82;;;;;;;7.85;61.56;97641.38;10412715;28;20093;-58
2022/01/03 17:47:36;;;;;;;147.65;92.82;;;;;;;7.84;61.38;97642.19;10402541;28;20036;-58
2022/01/03 17:52:35;;;;;;;157.82;104.38;;;;;;;7.74;61.71;97638.69;10404600;28;20129;-58
2022/01/03 17:57:34;;;;;;;141.30;85.57;;;;;;;7.73;61.55;97652.44;10406481;28;20028;-58
2022/01/03 18:02:33;;;;;;;95.60;59.65;;;;;;;7.68;61.23;97653.25;10409268;28;20114;-58
2022/01/03 18:07:32;;;;;;;124.22;81.97;;;;;;;7.50;62.49;97669.44;10411045;28;20020;-58
2022/01/03 18:12:31;;;;;;;134.25;85.65;;;;;;;7.41;63.62;97663.34;10410283;28;20397;-58
2022/01/03 18:17:31;;;;;;;90.10;57.60;;;;;;;7.18;63.93;97634.69;10411175;28;20024;-58
2022/01/03 18:22:29;;;;;;;88.18;54.95;;;;;;;7.11;63.75;97663.84;10408546;28;20067;-58
2022/01/03 18:27:28;;;;;;;76.97;51.45;;;;;;;7.02;64.57;97664.59;10407048;28;20029;-58
2022/01/03 18:32:28;;;;;;;81.40;48.65;;;;;;;6.92;64.74;97664.50;10408532;28;20530;-58
2022/01/03 18:37:27;;;;;;;73.97;49.55;;;;;;;6.85;65.18;97662.69;10405109;28;20064;-58
2022/01/03 18:42:26;;;;;;;82.80;51.50;;;;;;;6.74;65.52;97671.16;10412979;28;20032;-58
2022/01/03 18:47:25;;;;;;;77.78;52.25;;;;;;;6.61;65.69;97685.59;10408142;28;20036;-58
2022/01/03 18:52:24;;;;;;;90.90;59.40;;;;;;;6.53;66.58;97682.03;10416581;28;20048;-58
2022/01/03 18:57:23;;;;;;;;;;;;;;;6.40;66.32;97690.47;10410328;28;20116;-58
2022/01/03 19:02:23;;;;;;;91.32;58.45;;;;;;;6.29;66.72;97687.72;10407801;28;19920;-58
2022/01/03 19:07:22;;;;;;;91.90;59.85;;;;;;;6.17;66.33;97680.69;10420955;28;20804;-58
2022/01/03 19:12:21;;;;;;;107.40;69.70;;;;;;;6.17;66.89;97711.59;10411189;28;20076;-58
2022/01/03 19:17:20;;;;;;;112.82;70.20;;;;;;;6.09;68.03;97725.19;10411403;28;20100;-58
2022/01/03 19:22:20;;;;;;;89.45;60.53;;;;;;;6.00;67.84;97740.50;10401089;28;20137;-58
2022/01/03 19:27:19;;;;;;;89.63;59.20;;;;;;;5.97;68.09;97721.56;10412724;28;20060;-58
2022/01/03 19:32:20;;;;;;;73.68;49.22;;;;;;;5.85;68.34;97723.94;10402509;28;20083;-58
2022/01/03 19:42:36;;;;;;;75.53;49.83;;;;;;;5.70;68.37;97705.66;10418802;28;20068;-58
2022/01/03 19:47:36;;;;;;;70.70;47.00;;;;;;;5.61;69.22;97698.66;10420194;28;20067;-58
2022/01/03 19:52:35;;;;;;;82.00;53.80;;;;;;;5.71;68.79;97690.22;10410063;28;20780;-58
2022/01/03 19:57:35;;;;;;;68.85;45.70;;;;;;;5.63;69.05;97678.09;10404104;28;20124;-58
2022/01/03 20:02:34;;;;;;;53.97;32.45;;;;;;;5.58;69.10;97678.00;10416565;28;20080;-58
2022/01/03 20:07:34;;;;;;;39.80;25.20;;;;;;;5.48;70.09;97694.97;10406034;28;20496;-58
2022/01/03 20:12:33;;;;;;;;;;;;;;;5.32;71.28;97700.66;10414414;28;20075;-58
2022/01/03 20:17:33;;;;;;;107.38;67.88;;;;;;;5.20;71.37;97673.00;10410393;28;20021;-58
2022/01/03 20:22:32;;;;;;;102.38;66.95;;;;;;;5.39;71.14;97689.69;10409202;28;20087;-58
2022/01/03 20:27:31;;;;;;;117.35;74.07;;;;;;;5.29;71.47;97703.19;10413766;28;20060;-58
2022/01/03 20:32:30;;;;;;;135.68;84.82;;;;;;;5.09;71.81;97674.53;10407957;28;20064;-58
2022/01/03 20:37:29;;;;;;;111.05;71.68;;;;;;;5.24;71.60;97692.81;10404085;28;20122;-58
2022/01/03 20:42:28;;;;;;;103.07;65.30;;;;;;;5.32;71.09;97698.09;10416049;28;20044;-58
2022/01/03 20:47:27;;;;;;;84.13;57.03;;;;;;;5.29;70.69;97692.91;10412167;28;20068;-58
2022/01/03 20:52:26;;;;;;;93.78;60.80;;;;;;;5.25;71.10;97689.41;10408869;28;20151;-58
2022/01/03 20:57:26;;;;;;;139.75;91.80;;;;;;;5.16;71.12;97680.63;10406984;28;20024;-58
2022/01/03 21:02:25;;;;;;;101.75;66.45;;;;;;;5.05;71.69;97691.59;10410346;28;20067;-58
2022/01/03 21:07:24;;;;;;;97.93;63.20;;;;;;;4.93;72.23;97699.03;10414328;28;20043;-58
2022/01/03 21:12:23;;;;;;;75.10;47.15;;;;;;;4.90;72.12;97694.72;10414919;28;20835;-58
2022/01/03 21:17:22;;;;;;;80.30;52.22;;;;;;;4.67;72.23;97680.50;10408925;28;20575;-58
2022/01/03 21:22:21;;;;;;;85.88;56.50;;;;;;;4.44;72.60;97647.47;10398901;28;20072;-58
2022/01/03 21:27:21;;;;;;;104.38;63.70;;;;;;;4.53;72.86;97695.63;10404814;28;20502;-58
2022/01/03 21:32:22;;;;;;;;;;;;;;;4.45;73.26;97710.84;10403923;28;20076;-58
2022/01/03 21:37:21;;;;;;;123.88;77.40;;;;;;;4.39;73.49;97717.59;10413563;28;19959;-58
2022/01/03 21:42:20;;;;;;;135.82;83.45;;;;;;;4.28;74.09;97714.75;10412727;28;20072;-58
2022/01/03 21:47:19;;;;;;;133.95;83.25;;;;;;;4.09;74.34;97705.75;10412813;28;20059;-58
2022/01/03 21:52:18;;;;;;;127.85;82.78;;;;;;;4.10;74.74;97697.22;10411225;28;20040;-58
2022/01/03 21:57:17;;;;;;;114.82;74.70;;;;;;;3.83;75.89;97674.34;10409326;28;20044;-58
2022/01/03 22:02:16;;;;;;;111.82;72.07;;;;;;;3.92;75.98;97692.53;10407617;28;20454;-58
2022/01/03 22:07:15;;;;;;;155.85;97.28;;;;;;;3.76;77.37;97716.94;10414122;28;20199;-58
2022/01/03 22:12:15;;;;;;;163.70;104.32;;;;;;;3.79;76.83;97716.16;10409804;28;20031;-58
2022/01/03 22:17:14;;;;;;;102.28;63.38;;;;;;;3.58;77.70;97734.44;10409687;28;20072;-58
2022/01/03 22:22:13;;;;;;;101.90;59.97;;;;;;;3.61;77.50;97711.41;10412353;28;20111;-58
2022/01/03 22:27:12;;;;;;;73.95;48.13;;;;;;;3.40;77.74;97707.47;10409810;28;20072;-58
2022/01/03 22:32:11;;;;;;;94.65;59.28;;;;;;;3.43;77.77;97697.28;10412907;28;20079;-58
2022/01/03 22:37:10;;;;;;;84.32;54.55;;;;;;;3.32;78.16;97682.44;10408898;28;20068;-58
2022/01/03 22:42:09;;;;;;;75.90;49.63;;;;;;;3.38;78.27;97693.75;10403989;28;20054;-58
2022/01/03 22:47:10;;;;;;;;;;;;;;;3.41;78.27;97678.44;10411950;28;20471;-58
2022/01/03 22:52:09;;;;;;;88.93;54.78;;;;;;;3.43;77.47;97671.66;10412527;28;20371;-58
2022/01/03 22:57:08;;;;;;;95.43;57.75;;;;;;;3.40;77.91;97676.69;10400803;28;20394;-58
2022/01/03 23:02:07;;;;;;;95.90;61.03;;;;;;;3.31;77.72;97668.78;10401820;28;20462;-58
2022/01/03 23:07:06;;;;;;;107.43;69.38;;;;;;;3.19;78.02;97671.88;10410275;28;20048;-58
2022/01/03 23:12:05;;;;;;;134.35;83.55;;;;;;;2.88;78.71;97638.53;10410619;28;20082;-58
2022/01/03 23:17:05;;;;;;;140.50;89.40;;;;;;;2.97;79.54;97675.53;10428255;28;20071;-58
2022/01/03 23:22:04;;;;;;;;;;;;;;;2.87;79.45;97668.44;10407948;28;20546;-58
2022/01/03 23:27:03;;;;;;;139.90;88.22;;;;;;;2.85;79.59;97669.22;10411252;28;20354;-58
2022/01/03 23:32:02;;;;;;;151.10;97.20;;;;;;;2.83;78.91;97671.72;10416478;28;20103;-58
2022/01/03 23:37:01;;;;;;;126.55;78.95;;;;;;;2.81;78.94;97668.25;10417174;28;20166;-58
2022/01/03 23:42:00;;;;;;;122.07;77.22;;;;;;;2.74;79.01;97667.19;10419518;28;20071;-58
2022/01/03 23:46:59;;;;;;;133.25;79.07;;;;;;;2.72;79.39;97673.13;10407962;28;20043;-58